Time;durP1;ratioP1;P1;durP2;ratioP2;P2;SDS_P1;SDS_P2;PMS_P1;PMS_P2;Temp;Humidity;BMP_temperature;BMP_pressure;BME280_temperature;BME280_humidity;BME280_pressure;Samples;Min_cycle;Max_cycle;Signal;HPM_P1;HPM_P2
2022/05/06 00:01:35;;;;;;;45.80;25.70;;;9.80;99.90;;;;;;5076776;28;20190;-82
2022/05/06 00:04:03;;;;;;;45.70;24.92;;;9.20;99.90;;;;;;5077862;28;20055;-83
2022/05/06 00:06:29;;;;;;;44.83;26.50;;;9.90;99.90;;;;;;5091858;28;20032;-84
2022/05/06 00:08:56;;;;;;;44.47;25.02;;;9.20;99.90;;;;;;5094955;28;20062;-80
2022/05/06 00:11:22;;;;;;;41.63;25.13;;;9.10;99.90;;;;;;5106796;28;20036;-81
2022/05/06 00:13:52;;;;;;;39.10;23.88;;;9.10;99.90;;;;;;5084463;28;20360;-84
2022/05/06 00:16:18;;;;;;;41.50;24.05;;;9.00;99.90;;;;;;5079330;28;20398;-85
2022/05/06 00:18:44;;;;;;;37.83;23.92;;;9.00;99.90;;;;;;5095765;28;20044;-83
2022/05/06 00:21:10;;;;;;;38.20;23.00;;;9.30;99.90;;;;;;5093452;28;20040;-80
2022/05/06 00:23:36;;;;;;;34.13;20.48;;;9.90;99.90;;;;;;5071425;28;20187;-80
2022/05/06 00:26:03;;;;;;;29.50;19.27;;;10.20;99.90;;;;;;5077797;28;20075;-79
2022/05/06 00:28:29;;;;;;;28.73;18.92;;;9.50;99.90;;;;;;5080446;28;20027;-81
2022/05/06 00:30:54;;;;;;;29.85;18.35;;;9.10;99.90;;;;;;5071830;28;20024;-83
2022/05/06 00:33:24;;;;;;;25.90;16.70;;;9.10;99.90;;;;;;5073336;28;20506;-80
2022/05/06 00:35:53;;;;;;;19.77;13.32;;;9.60;99.90;;;;;;5080459;28;20055;-82
2022/05/06 00:38:20;;;;;;;19.75;12.10;;;9.90;99.90;;;;;;5094248;28;20036;-80
2022/05/06 00:40:45;;;;;;;18.73;12.60;;;9.20;99.90;;;;;;5094095;28;20043;-82
2022/05/06 00:43:12;;;;;;;20.13;13.10;;;8.90;99.90;;;;;;5083743;28;20032;-80
2022/05/06 00:45:56;;;;;;;19.48;13.98;;;8.90;99.90;;;;;;5077184;28;20116;-82
2022/05/06 00:48:26;;;;;;;19.43;13.30;;;8.80;99.90;;;;;;5097646;28;20118;-83
2022/05/06 00:50:53;;;;;;;23.60;13.82;;;8.80;99.90;;;;;;5075469;28;20056;-82
2022/05/06 00:53:19;;;;;;;19.98;13.52;;;9.40;99.90;;;;;;5090737;28;20051;-83
2022/05/06 00:55:45;;;;;;;20.52;14.13;;;8.70;99.90;;;;;;5098754;28;20056;-82
2022/05/06 00:58:11;;;;;;;22.10;14.73;;;9.80;99.90;;;;;;5079316;28;20044;-82
2022/05/06 01:00:37;;;;;;;23.58;14.93;;;9.40;99.90;;;;;;5090737;28;20047;-81
2022/05/06 01:03:04;;;;;;;23.52;14.98;;;8.90;99.90;;;;;;5080756;28;20232;-84
2022/05/06 01:05:31;;;;;;;17.77;12.23;;;8.60;99.90;;;;;;5076224;28;20111;-84
2022/05/06 01:07:58;;;;;;;16.50;11.95;;;8.60;99.90;;;;;;5083886;28;20043;-82
2022/05/06 01:10:24;;;;;;;16.58;11.82;;;;;;;;;;5083203;28;20047;-83
2022/05/06 01:12:50;;;;;;;20.23;12.43;;;8.50;99.90;;;;;;5094619;28;20880;-83
2022/05/06 01:15:29;;;;;;;18.58;12.38;;;10.20;99.90;;;;;;5099356;28;20047;-83
2022/05/06 01:17:56;;;;;;;20.98;13.52;;;8.60;99.90;;;;;;5085747;28;20100;-81
2022/05/06 01:20:23;;;;;;;23.27;15.88;;;8.60;99.90;;;;;;5080866;28;20360;-83
2022/05/06 01:22:50;;;;;;;23.38;16.23;;;8.50;99.90;;;;;;5098849;28;20457;-81
2022/05/06 01:25:16;;;;;;;28.63;15.52;;;8.60;99.90;;;;;;5093296;28;20062;-81
2022/05/06 01:28:00;;;;;;;20.23;14.80;;;9.70;99.90;;;;;;5080116;28;20095;-83
2022/05/06 01:30:38;;;;;;;22.50;15.63;;;8.50;99.90;;;;;;5097108;28;20122;-84
2022/05/06 01:33:09;;;;;;;20.17;15.05;;;8.40;99.90;;;;;;5094798;28;20032;-81
2022/05/06 01:35:45;;;;;;;24.25;15.30;;;8.30;99.90;;;;;;5093137;28;20074;-77
2022/05/06 01:38:25;;;;;;;21.15;15.13;;;8.30;99.90;;;;;;5125090;28;20038;-77
2022/05/06 01:40:55;;;;;;;20.45;14.82;;;8.20;99.90;;;;;;5078897;28;20502;-84
2022/05/06 01:43:24;;;;;;;19.48;14.63;;;9.60;99.90;;;;;;5075185;28;20032;-83
2022/05/06 01:45:54;;;;;;;18.45;13.32;;;8.20;99.90;;;;;;5082037;28;20434;-83
2022/05/06 01:48:21;;;;;;;17.33;13.32;;;8.10;99.90;;;;;;5082839;28;20139;-83
2022/05/06 01:50:48;;;;;;;17.02;13.70;;;8.80;99.90;;;;;;5079800;28;20047;-81
2022/05/06 01:53:16;;;;;;;16.08;13.20;;;9.40;99.90;;;;;;5102081;28;20115;-82
2022/05/06 01:55:44;;;;;;;18.45;14.48;;;8.00;99.90;;;;;;5081309;28;20142;-84
2022/05/06 01:58:10;;;;;;;15.65;13.10;;;7.90;99.90;;;;;;5081148;28;20044;-83
2022/05/06 02:00:36;;;;;;;15.35;13.32;;;9.50;99.90;;;;;;5078585;28;20043;-82
2022/05/06 02:03:03;;;;;;;16.23;13.98;;;8.50;99.90;;;;;;5082623;28;20044;-82
2022/05/06 02:05:29;;;;;;;16.33;13.20;;;7.90;99.90;;;;;;5101153;28;20036;-81
2022/05/06 02:07:55;;;;;;;16.15;13.23;;;8.70;99.90;;;;;;5103597;28;20065;-81
2022/05/06 02:10:22;;;;;;;17.80;13.85;;;8.70;99.90;;;;;;5080332;28;20055;-84
2022/05/06 02:12:48;;;;;;;17.85;14.02;;;8.90;99.90;;;;;;5106518;28;20036;-84
2022/05/06 02:15:16;;;;;;;23.95;14.30;;;7.90;99.90;;;;;;5095630;28;20036;-84
2022/05/06 02:17:41;;;;;;;18.40;13.15;;;7.90;99.90;;;;;;5098097;28;20036;-82
2022/05/06 02:20:09;;;;;;;17.90;12.95;;;8.70;99.90;;;;;;5077822;28;20134;-81
2022/05/06 02:22:37;;;;;;;16.75;13.10;;;7.80;99.90;;;;;;5087837;28;20114;-82
2022/05/06 02:25:05;;;;;;;19.73;13.80;;;7.80;99.90;;;;;;5093335;28;20513;-81
2022/05/06 02:27:32;;;;;;;15.52;12.68;;;7.70;99.90;;;;;;5075213;28;20162;-81
2022/05/06 02:35:28;;;;;;;19.05;14.00;;;8.20;99.90;;;;;;5101409;28;20043;-83
2022/05/06 02:37:54;;;;;;;17.23;12.80;;;7.60;99.90;;;;;;5076342;28;20083;-81
2022/05/06 02:40:20;;;;;;;17.23;13.63;;;7.80;99.90;;;;;;5095051;28;20130;-83
2022/05/06 02:42:45;;;;;;;20.45;14.30;;;7.60;99.90;;;;;;5098070;28;20123;-82
2022/05/06 02:45:11;;;;;;;19.98;14.77;;;8.40;99.90;;;;;;5100276;28;20039;-84
2022/05/06 02:47:37;;;;;;;21.52;15.50;;;7.60;99.90;;;;;;5093709;28;20100;-83
2022/05/06 02:50:03;;;;;;;21.05;15.60;;;7.60;99.90;;;;;;5076631;28;20089;-82
2022/05/06 02:52:29;;;;;;;24.92;15.80;;;7.60;99.90;;;;;;5095363;28;20089;-80
2022/05/06 02:54:55;;;;;;;35.03;19.15;;;8.60;99.90;;;;;;5095427;28;20079;-84
2022/05/06 02:57:20;;;;;;;45.63;23.00;;;7.70;99.90;;;;;;5101640;28;20040;-83
2022/05/06 02:59:46;;;;;;;43.55;23.52;;;8.00;99.90;;;;;;5094572;28;20036;-81
2022/05/06 03:02:12;;;;;;;42.05;23.73;;;7.80;99.90;;;;;;5100097;28;20032;-78
2022/05/06 03:04:56;;;;;;;46.05;24.00;;;7.80;99.90;;;;;;5099608;28;20044;-82
2022/05/06 03:07:22;;;;;;;57.33;27.85;;;9.60;99.90;;;;;;5097184;28;20044;-85
2022/05/06 03:09:48;;;;;;;73.13;31.23;;;8.00;99.90;;;;;;5097906;28;20064;-83
2022/05/06 03:12:16;;;;;;;83.47;31.88;;;9.60;99.90;;;;;;5099833;28;20131;-81
2022/05/06 03:14:44;;;;;;;72.07;30.92;;;9.60;99.90;;;;;;5099728;28;20038;-81
2022/05/06 03:17:10;;;;;;;89.88;33.38;;;8.30;99.90;;;;;;5092847;28;20043;-83
2022/05/06 03:19:36;;;;;;;110.25;37.35;;;8.50;99.90;;;;;;5099673;28;20435;-82
2022/05/06 03:22:02;;;;;;;98.72;35.40;;;8.50;99.90;;;;;;5099676;28;20114;-82
2022/05/06 03:24:28;;;;;;;135.35;41.00;;;8.50;99.90;;;;;;5080972;28;20031;-83
2022/05/06 03:26:54;;;;;;;449.27;50.08;;;8.60;99.90;;;;;;5079382;28;20551;-82
2022/05/06 03:29:20;;;;;;;254.48;44.28;;;8.60;99.90;;;;;;5075875;28;20123;-82
2022/05/06 03:31:46;;;;;;;188.63;50.60;;;8.70;99.90;;;;;;5097037;28;20222;-83
2022/05/06 03:34:16;;;;;;;144.68;46.15;;;9.10;99.90;;;;;;5096795;28;20122;-84
2022/05/06 03:36:41;;;;;;;333.13;50.92;;;8.80;99.90;;;;;;5092147;28;20036;-83
2022/05/06 03:39:07;;;;;;;262.10;51.33;;;10.00;99.90;;;;;;5097053;28;20032;-84
2022/05/06 03:41:33;;;;;;;490.45;55.15;;;8.90;99.90;;;;;;5102027;28;20112;-84
2022/05/06 03:43:59;;;;;;;839.88;62.50;;;9.40;99.90;;;;;;5106254;28;20036;-83
2022/05/06 03:46:24;;;;;;;499.70;60.13;;;8.90;99.90;;;;;;5100450;28;20052;-84
2022/05/06 03:48:51;;;;;;;528.55;55.22;;;9.10;99.90;;;;;;5091864;28;20342;-84
2022/05/06 03:51:22;;;;;;;493.70;55.65;;;10.40;99.90;;;;;;5094090;28;20403;-82
2022/05/06 03:53:49;;;;;;;165.32;48.25;;;10.40;99.90;;;;;;5078104;28;20103;-83
2022/05/06 03:56:15;;;;;;;276.05;46.70;;;9.00;99.90;;;;;;5087521;28;20039;-85
2022/05/06 03:58:41;;;;;;;246.65;50.28;;;10.50;99.90;;;;;;5106017;28;20165;-83
2022/05/06 04:01:10;;;;;;;498.67;51.65;;;9.00;99.90;;;;;;5096749;28;20035;-84
2022/05/06 04:03:36;;;;;;;612.90;54.38;;;8.90;99.90;;;;;;5081401;28;20430;-83
2022/05/06 04:06:02;;;;;;;281.02;46.28;;;9.50;99.90;;;;;;5090448;28;20036;-83
2022/05/06 04:08:27;;;;;;;472.45;49.22;;;9.00;99.90;;;;;;5098356;28;20054;-82
2022/05/06 04:10:54;;;;;;;134.38;43.65;;;10.60;99.90;;;;;;5101614;28;20046;-83
2022/05/06 04:13:19;;;;;;;521.40;44.05;;;10.50;99.90;;;;;;5078273;28;20035;-84
2022/05/06 04:15:46;;;;;;;352.63;39.75;;;9.00;99.90;;;;;;5093516;28;20092;-84
2022/05/06 04:18:12;;;;;;;242.85;36.03;;;10.00;99.90;;;;;;5080340;28;20119;-84
2022/05/06 04:23:29;;;;;;;456.83;35.75;;;9.50;99.90;;;;;;5094796;28;20093;-83
2022/05/06 04:26:00;;;;;;;283.58;33.88;;;9.20;99.90;;;;;;5085943;28;20052;-83
2022/05/06 04:28:27;;;;;;;261.80;33.33;;;8.90;99.90;;;;;;5103167;28;20067;-80
2022/05/06 04:30:53;;;;;;;330.92;34.03;;;9.50;99.90;;;;;;5104559;28;20062;-77
2022/05/06 04:33:20;;;;;;;441.85;37.47;;;9.50;99.90;;;;;;5111658;28;20068;-84
2022/05/06 04:35:47;;;;;;;366.23;36.33;;;9.00;99.90;;;;;;5105842;28;20055;-84
2022/05/06 04:38:13;;;;;;;285.63;36.13;;;9.00;99.90;;;;;;5093250;28;20027;-84
2022/05/06 04:40:42;;;;;;;530.65;43.40;;;9.00;99.90;;;;;;5092403;28;20097;-82
2022/05/06 04:43:09;;;;;;;460.77;43.05;;;9.10;99.90;;;;;;5091483;28;20522;-84
2022/05/06 04:45:38;;;;;;;105.72;37.63;;;9.20;99.90;;;;;;5087421;28;20047;-82
2022/05/06 04:48:05;;;;;;;260.60;37.03;;;10.20;99.90;;;;;;5101383;28;20056;-83
2022/05/06 04:50:36;;;;;;;250.55;36.85;;;9.10;99.90;;;;;;5078160;28;20391;-83
2022/05/06 04:53:02;;;;;;;289.05;38.17;;;9.60;99.90;;;;;;5072937;28;20036;-82
2022/05/06 04:55:28;;;;;;;367.27;40.97;;;9.20;99.90;;;;;;5096895;28;20039;-83
2022/05/06 04:57:54;;;;;;;188.23;35.13;;;10.20;99.90;;;;;;5096672;28;20115;-84
2022/05/06 05:00:22;;;;;;;245.63;37.80;;;9.30;99.90;;;;;;5106844;28;20043;-85
2022/05/06 05:02:48;;;;;;;162.68;37.15;;;9.50;99.90;;;;;;5081396;28;20215;-82
2022/05/06 05:05:15;;;;;;;289.15;40.35;;;10.20;99.90;;;;;;5094884;28;20032;-84
2022/05/06 05:07:41;;;;;;;216.02;38.25;;;10.20;99.90;;;;;;5082675;28;20093;-84
2022/05/06 05:10:08;;;;;;;304.85;42.28;;;9.10;99.90;;;;;;5094049;28;20035;-83
2022/05/06 05:12:34;;;;;;;208.75;40.22;;;9.40;99.90;;;;;;5086208;28;20032;-84
2022/05/06 05:15:00;;;;;;;127.40;37.95;;;9.50;99.90;;;;;;5081466;28;20463;-85
2022/05/06 05:17:26;;;;;;;287.80;36.47;;;10.30;99.90;;;;;;5073302;28;20495;-82
2022/05/06 05:19:52;;;;;;;178.73;36.60;;;9.50;99.90;;;;;;5093458;28;20055;-83
2022/05/06 05:22:19;;;;;;;126.55;37.83;;;9.50;99.90;;;;;;5096909;28;20940;-83
2022/05/06 05:24:45;;;;;;;186.10;41.47;;;10.00;99.90;;;;;;5104288;28;20039;-86
2022/05/06 05:27:13;;;;;;;179.60;42.50;;;9.40;99.90;;;;;;5082915;28;20079;-82
2022/05/06 05:29:39;;;;;;;163.82;44.55;;;9.50;99.90;;;;;;5101555;28;20087;-85
2022/05/06 05:32:05;;;;;;;130.80;42.03;;;9.90;99.90;;;;;;5101727;28;20461;-84
2022/05/06 05:34:31;;;;;;;120.57;40.25;;;9.70;99.90;;;;;;5091235;28;20042;-83
2022/05/06 05:36:56;;;;;;;131.65;42.15;;;9.70;99.90;;;;;;5074629;28;20040;-79
2022/05/06 05:39:22;;;;;;;176.45;39.80;;;9.70;99.90;;;;;;5088595;28;20036;-81
2022/05/06 05:41:51;;;;;;;187.20;44.75;;;9.80;99.90;;;;;;5073901;28;20042;-82
2022/05/06 05:49:50;;;;;;;94.05;39.78;;;9.80;99.90;;;;;;5098299;28;20173;-85
2022/05/06 05:52:15;;;;;;;146.30;40.50;;;9.90;99.90;;;;;;5093461;28;20496;-82
2022/05/06 05:54:41;;;;;;;121.40;36.85;;;9.90;99.90;;;;;;5094729;28;20043;-77
2022/05/06 05:57:07;;;;;;;134.55;40.90;;;9.80;99.90;;;;;;5089871;28;20052;-85
2022/05/06 05:59:33;;;;;;;102.82;40.13;;;9.90;99.90;;;;;;5090421;28;20131;-83
2022/05/06 06:02:02;;;;;;;101.07;39.60;;;10.20;99.90;;;;;;5076777;28;20040;-87
2022/05/06 06:04:28;;;;;;;143.73;35.63;;;10.10;99.90;;;;;;5096216;28;20039;-87
2022/05/06 06:06:54;;;;;;;100.60;37.95;;;10.00;99.90;;;;;;5088751;28;20601;-83
2022/05/06 06:09:23;;;;;;;71.50;34.97;;;10.10;99.90;;;;;;5091243;28;20036;-85
2022/05/06 06:11:49;;;;;;;172.45;39.13;;;10.30;99.90;;;;;;5090853;28;20127;-82
2022/05/06 06:14:16;;;;;;;113.80;34.10;;;10.10;99.90;;;;;;5087050;28;20131;-81
2022/05/06 06:16:45;;;;;;;110.82;35.55;;;10.30;99.90;;;;;;5088954;28;20036;-82
2022/05/06 06:19:12;;;;;;;85.35;34.95;;;10.20;99.90;;;;;;5072307;28;20040;-84
2022/05/06 06:21:38;;;;;;;91.53;36.05;;;10.20;99.90;;;;;;5075813;28;20044;-82
2022/05/06 06:24:03;;;;;;;138.57;36.78;;;10.70;99.90;;;;;;5090559;28;20364;-82
2022/05/06 06:26:29;;;;;;;98.25;39.05;;;10.30;99.90;;;;;;5088116;28;20075;-82
2022/05/06 06:28:55;;;;;;;87.55;36.58;;;10.60;99.90;;;;;;5069649;28;20062;-82
2022/05/06 06:31:21;;;;;;;78.57;35.58;;;11.10;99.90;;;;;;5089126;28;20560;-82
2022/05/06 06:33:47;;;;;;;74.25;32.17;;;10.80;99.90;;;;;;5069205;28;20500;-82
2022/05/06 06:36:13;;;;;;;76.80;33.97;;;10.90;99.90;;;;;;5072380;28;20047;-81
2022/05/06 06:38:39;;;;;;;81.32;34.67;;;10.90;99.90;;;;;;5085717;28;20120;-81
2022/05/06 06:41:05;;;;;;;70.15;34.38;;;11.00;99.90;;;;;;5078757;28;20094;-80
2022/05/06 06:43:31;;;;;;;64.00;32.95;;;11.20;99.90;;;;;;5090120;28;20130;-80
2022/05/06 06:45:57;;;;;;;62.35;33.83;;;11.00;99.90;;;;;;5068053;28;20632;-79
2022/05/06 06:48:26;;;;;;;69.28;34.22;;;10.90;99.90;;;;;;5058823;28;20075;-79
2022/05/06 06:50:55;;;;;;;91.95;35.03;;;11.10;99.90;;;;;;5061805;28;20101;-85
2022/05/06 06:53:21;;;;;;;83.18;35.42;;;11.10;99.90;;;;;;5072783;28;20058;-84
2022/05/06 06:55:48;;;;;;;75.00;34.95;;;11.30;99.90;;;;;;5055081;28;20737;-84
2022/05/06 06:58:14;;;;;;;76.55;35.00;;;11.30;99.90;;;;;;5054965;28;20120;-82
2022/05/06 07:00:42;;;;;;;75.90;36.95;;;11.70;99.90;;;;;;5076335;28;20454;-82
2022/05/06 07:03:11;;;;;;;63.05;33.58;;;11.50;99.90;;;;;;5054896;28;20075;-82
2022/05/06 07:05:36;;;;;;;66.60;33.22;;;11.80;99.90;;;;;;5073953;28;20048;-86
2022/05/06 07:13:34;;;;;;;46.90;28.50;;;12.00;99.90;;;;;;5075382;28;20044;-84
2022/05/06 07:16:01;;;;;;;53.35;28.23;;;12.10;99.90;;;;;;5076202;28;20052;-76
2022/05/06 07:18:27;;;;;;;41.15;23.55;;;12.20;99.90;;;;;;5099185;28;20048;-78
2022/05/06 07:20:54;;;;;;;39.67;23.20;;;12.20;99.90;;;;;;5068705;28;20056;-86
2022/05/06 07:23:21;;;;;;;43.28;24.83;;;12.30;99.90;;;;;;5072355;28;20044;-83
2022/05/06 07:25:46;;;;;;;36.90;22.75;;;12.60;99.90;;;;;;5078921;28;20048;-81
2022/05/06 07:28:12;;;;;;;43.08;24.58;;;12.50;99.90;;;;;;5074280;28;20174;-85
2022/05/06 07:30:38;;;;;;;41.22;25.05;;;12.70;99.90;;;;;;5078284;28;20048;-81
2022/05/06 07:33:04;;;;;;;39.30;23.85;;;12.80;99.90;;;;;;5089236;28;20099;-85
2022/05/06 07:35:30;;;;;;;37.42;22.77;;;12.60;99.90;;;;;;5078704;28;20048;-84
2022/05/06 07:37:56;;;;;;;39.28;22.80;;;12.50;99.90;;;;;;5064982;28;20044;-82
2022/05/06 07:40:23;;;;;;;31.30;20.02;;;12.60;99.90;;;;;;5075457;28;20052;-85
2022/05/06 07:42:50;;;;;;;30.55;19.27;;;12.70;99.90;;;;;;5060769;28;20052;-86
2022/05/06 07:45:16;;;;;;;29.15;18.70;;;13.00;99.90;;;;;;5077758;28;20456;-84
2022/05/06 07:47:42;;;;;;;31.15;19.85;;;13.00;99.90;;;;;;5108427;28;20122;-86
2022/05/06 07:50:08;;;;;;;32.50;19.83;;;12.90;99.90;;;;;;5077226;28;20513;-84
2022/05/06 07:52:34;;;;;;;27.30;18.75;;;13.10;99.90;;;;;;5075158;28;20040;-85
2022/05/06 07:54:59;;;;;;;26.52;17.95;;;13.10;99.90;;;;;;5084201;28;20101;-84
2022/05/06 07:57:25;;;;;;;22.08;15.45;;;13.30;99.90;;;;;;5077639;28;20046;-84
2022/05/06 07:59:51;;;;;;;20.65;14.73;;;13.30;99.90;;;;;;5079461;28;20130;-85
2022/05/06 08:05:01;;;;;;;19.30;14.95;;;13.50;99.90;;;;;;5093754;28;20044;-81
2022/05/06 08:07:26;;;;;;;18.80;14.07;;;13.70;99.90;;;;;;5097573;28;20060;-81
2022/05/06 08:09:52;;;;;;;19.13;13.90;;;13.90;99.90;;;;;;5080855;28;20044;-82
2022/05/06 08:12:18;;;;;;;14.65;11.45;;;13.90;99.90;;;;;;5075712;28;20805;-80
2022/05/06 08:14:44;;;;;;;15.48;11.48;;;14.10;99.90;;;;;;5090887;28;20406;-80
2022/05/06 08:17:13;;;;;;;13.25;11.43;;;14.30;99.90;;;;;;5094783;27;20110;-82
2022/05/06 08:19:39;;;;;;;13.60;10.88;;;14.30;99.90;;;;;;5078120;28;20117;-83
2022/05/06 08:22:05;;;;;;;12.40;10.48;;;14.50;99.90;;;;;;5079147;28;20097;-81
2022/05/06 08:24:31;;;;;;;12.35;10.20;;;14.40;99.90;;;;;;5097379;28;20056;-81
2022/05/06 08:26:56;;;;;;;12.65;9.35;;;14.50;99.90;;;;;;5100252;28;20474;-81
2022/05/06 08:29:22;;;;;;;10.60;8.95;;;14.70;99.90;;;;;;5077563;28;20043;-82
2022/05/06 08:31:48;;;;;;;9.98;8.32;;;14.80;99.90;;;;;;5073034;28;20048;-84
2022/05/06 08:38:32;;;;;;;9.40;6.97;;;14.80;99.90;;;;;;5105395;28;20066;-79
2022/05/06 08:40:59;;;;;;;7.15;6.45;;;15.00;99.90;;;;;;5110940;28;20467;-78
2022/05/06 08:43:25;;;;;;;7.28;6.15;;;15.10;99.90;;;;;;5100997;28;20056;-81
2022/05/06 08:51:31;;;;;;;9.23;8.10;;;15.50;99.90;;;;;;5092137;27;20132;-81
2022/05/06 08:54:01;;;;;;;;;;;15.50;99.90;;;;;;5076667;28;20039;-82
2022/05/06 08:56:28;;;;;;;9.70;8.70;;;15.70;99.90;;;;;;5100343;28;19920;-83
2022/05/06 08:58:54;;;;;;;7.55;4.80;;;15.80;99.90;;;;;;5062528;28;20060;-79
2022/05/06 09:01:25;;;;;;;10.45;5.07;;;16.10;99.90;;;;;;5093447;28;20415;-79
2022/05/06 09:03:56;;;;;;;24.52;6.22;;;16.40;99.90;;;;;;5093502;28;20048;-78
2022/05/06 09:06:31;;;;;;;9.45;4.70;;;16.60;99.90;;;;;;5095730;28;20040;-80
2022/05/06 09:09:01;;;;;;;6.85;5.60;;;16.60;99.90;;;;;;5098104;28;20130;-83
2022/05/06 09:14:16;;;;;;;5.70;5.07;;;16.70;99.90;;;;;;5091949;28;20038;-81
2022/05/06 09:16:44;;;;;;;7.20;5.13;;;16.50;99.90;;;;;;5093606;28;20043;-83
2022/05/06 09:19:16;;;;;;;6.60;5.55;;;16.20;99.90;;;;;;5092521;28;20048;-81
2022/05/06 09:22:05;;;;;;;6.28;5.68;;;16.30;99.90;;;;;;5097641;28;20043;-83
2022/05/06 09:24:33;;;;;;;7.10;6.40;;;16.30;99.90;;;;;;5085484;28;20048;-83
2022/05/06 09:27:01;;;;;;;8.38;6.45;;;16.50;99.90;;;;;;5086913;28;20040;-81
2022/05/06 09:29:43;;;;;;;7.38;6.68;;;16.50;99.90;;;;;;5088665;28;20047;-81
2022/05/06 09:32:21;;;;;;;7.13;5.15;;;16.60;99.90;;;;;;5095680;28;20040;-86
2022/05/06 09:34:54;;;;;;;7.22;5.55;;;16.70;99.90;;;;;;5101684;28;20358;-81
2022/05/06 09:37:33;;;;;;;8.40;5.03;;;16.70;99.90;;;;;;5097583;28;20146;-82
2022/05/06 09:40:16;;;;;;;5.63;5.03;;;17.00;99.90;;;;;;5097288;28;20359;-82
2022/05/06 09:42:59;;;;;;;7.53;4.95;;;16.80;99.90;;;;;;5101203;28;20027;-81
2022/05/06 09:45:39;;;;;;;7.85;5.00;;;17.10;99.90;;;;;;5100225;28;20055;-81
2022/05/06 09:48:09;;;;;;;6.38;5.43;;;17.30;99.90;;;;;;5077294;28;20047;-81
2022/05/06 09:51:13;;;;;;;6.15;5.55;;;17.50;99.90;;;;;;5092804;28;20044;-82
2022/05/06 09:53:40;;;;;;;7.38;5.20;;;17.80;99.90;;;;;;5094525;28;20045;-84
2022/05/06 09:56:07;;;;;;;6.05;5.45;;;18.00;99.90;;;;;;5095816;28;20044;-76
2022/05/06 09:58:33;;;;;;;8.73;6.03;;;17.60;99.90;;;;;;5098076;28;20208;-80
2022/05/06 10:01:02;;;;;;;6.30;3.80;;;17.30;99.90;;;;;;5101225;28;20153;-82
2022/05/06 10:03:27;;;;;;;9.18;5.45;;;17.50;99.90;;;;;;5082634;28;20067;-75
2022/05/06 10:06:50;;;;;;;4.97;4.57;;;17.90;99.90;;;;;;5102227;28;20048;-78
2022/05/06 10:09:20;;;;;;;4.63;4.10;;;18.10;99.90;;;;;;5086322;28;20043;-77
2022/05/06 10:11:46;;;;;;;5.40;4.90;;;18.40;99.90;;;;;;5074904;28;20059;-78
2022/05/06 10:14:15;;;;;;;5.25;4.57;;;18.50;99.90;;;;;;5078473;28;20123;-78
2022/05/06 10:16:41;;;;;;;4.10;3.60;;;18.70;99.90;;;;;;5088675;28;20082;-80
2022/05/06 10:19:25;;;;;;;4.82;4.43;;;18.80;99.90;;;;;;5077939;28;20044;-78
2022/05/06 10:21:51;;;;;;;7.13;4.10;;;19.00;99.90;;;;;;5093572;28;20095;-78
2022/05/06 10:24:17;;;;;;;5.75;4.03;;;19.10;99.90;;;;;;5096764;28;20047;-81
2022/05/06 10:26:45;;;;;;;8.02;4.00;;;19.10;99.90;;;;;;5089622;28;20410;-81
2022/05/06 10:32:26;;;;;;;7.25;3.85;;;19.00;99.90;;;;;;5086842;28;20137;-81
2022/05/06 10:34:58;;;;;;;5.03;4.20;;;19.10;99.90;;;;;;5092016;28;20055;-78
2022/05/06 10:37:34;;;;;;;4.60;4.20;;;19.10;99.90;;;;;;5085087;28;20047;-81
2022/05/06 10:40:22;;;;;;;12.60;4.53;;;19.20;99.90;;;;;;5077715;28;20048;-85
2022/05/06 10:42:59;;;;;;;4.22;3.50;;;19.30;99.90;;;;;;5094737;28;20043;-83
2022/05/06 10:45:36;;;;;;;3.88;3.42;;;19.30;99.90;;;;;;5081669;28;20037;-82
2022/05/06 10:48:17;;;;;;;5.28;3.50;;;19.30;99.90;;;;;;5080710;28;20043;-84
2022/05/06 10:50:43;;;;;;;5.22;3.20;;;19.40;99.90;;;;;;5090445;28;20052;-80
2022/05/06 10:53:33;;;;;;;4.22;3.05;;;19.20;99.90;;;;;;5076553;28;20051;-84
2022/05/06 10:55:58;;;;;;;4.43;2.90;;;19.30;99.90;;;;;;5076836;28;20056;-79
2022/05/06 10:58:24;;;;;;;5.13;3.20;;;19.20;99.90;;;;;;5094680;28;20112;-80
2022/05/06 11:00:58;;;;;;;4.70;3.10;;;19.30;99.90;;;;;;5104252;28;20035;-81
2022/05/06 11:03:27;;;;;;;4.95;2.90;;;19.40;99.90;;;;;;5078844;28;20397;-82
2022/05/06 11:06:11;;;;;;;5.05;3.30;;;19.50;99.90;;;;;;5083536;28;20044;-83
2022/05/06 11:08:37;;;;;;;3.00;2.80;;;19.50;99.90;;;;;;5089041;28;20047;-82
2022/05/06 11:11:14;;;;;;;2.88;2.67;;;19.70;99.90;;;;;;5098607;28;20040;-81
2022/05/06 11:13:40;;;;;;;2.97;2.58;;;19.70;99.90;;;;;;5094903;28;20040;-81
2022/05/06 11:16:07;;;;;;;8.60;2.40;;;19.60;99.90;;;;;;5101897;28;20051;-87
2022/05/06 11:18:48;;;;;;;3.10;2.80;;;20.00;99.90;;;;;;5076979;28;20047;-86
2022/05/06 11:21:21;;;;;;;2.80;2.57;;;19.70;99.90;;;;;;5098178;28;20062;-87
2022/05/06 11:23:47;;;;;;;2.90;2.47;;;20.20;99.90;;;;;;5099363;28;20044;-86
2022/05/06 11:26:23;;;;;;;3.13;2.60;;;20.20;99.90;;;;;;5082948;28;20479;-86
2022/05/06 11:29:06;;;;;;;2.95;2.65;;;20.50;99.90;;;;;;5090559;28;20050;-87
2022/05/06 11:31:35;;;;;;;3.47;2.80;;;20.70;99.90;;;;;;5098369;28;20072;-86
2022/05/06 11:34:05;;;;;;;2.78;2.42;;;20.70;99.90;;;;;;5096527;28;20036;-86
2022/05/06 11:42:41;;;;;;;2.80;1.90;;;21.40;99.90;;;;;;5098158;28;20071;-80
2022/05/06 11:47:52;;;;;;;2.80;2.20;;;21.50;99.90;;;;;;5102004;28;20463;-81
2022/05/06 11:50:19;;;;;;;6.90;2.33;;;21.40;99.90;;;;;;5104390;28;20036;-80
2022/05/06 11:52:46;;;;;;;2.40;1.90;;;21.70;99.90;;;;;;5079189;28;20040;-80
2022/05/06 11:55:14;;;;;;;4.18;1.55;;;22.20;99.90;;;;;;5098870;28;20058;-80
2022/05/06 11:57:41;;;;;;;5.20;1.77;;;22.30;99.90;;;;;;5079192;28;20136;-81
2022/05/06 12:00:08;;;;;;;3.10;1.52;;;22.10;99.90;;;;;;5096022;28;20070;-79
2022/05/06 12:02:34;;;;;;;1.90;1.35;;;22.00;99.90;;;;;;5083130;28;20490;-79
2022/05/06 12:05:00;;;;;;;5.43;1.73;;;22.20;99.90;;;;;;5080783;28;20055;-79
2022/05/06 12:07:46;;;;;;;1.77;1.40;;;22.20;99.90;;;;;;5091830;28;20468;-80
2022/05/06 12:10:29;;;;;;;2.25;1.60;;;22.10;99.90;;;;;;5079880;28;20143;-79
2022/05/06 12:12:55;;;;;;;1.52;1.23;;;21.60;99.90;;;;;;5086143;28;20048;-79
2022/05/06 12:15:28;;;;;;;3.28;1.20;;;21.50;99.90;;;;;;5096658;28;20054;-78
2022/05/06 12:18:02;;;;;;;2.13;1.30;;;21.70;99.90;;;;;;5095346;28;20453;-78
2022/05/06 12:20:41;;;;;;;2.50;1.40;;;21.70;99.90;;;;;;5091998;28;20051;-78
2022/05/06 12:23:08;;;;;;;1.83;1.40;;;22.00;99.90;;;;;;5076706;28;20471;-80
2022/05/06 12:25:35;;;;;;;1.60;1.40;;;22.40;99.90;;;;;;5098088;28;20044;-79
2022/05/06 12:28:14;;;;;;;3.95;1.40;;;22.70;99.90;;;;;;5094559;28;20059;-80
2022/05/06 12:30:40;;;;;;;3.85;1.73;;;22.80;99.90;;;;;;5093947;28;20104;-80
2022/05/06 12:33:08;;;;;;;8.40;1.60;;;22.60;99.90;;;;;;5075648;28;20040;-80
2022/05/06 12:35:55;;;;;;;3.83;1.80;;;22.20;99.90;;;;;;5085199;28;20051;-80
2022/05/06 12:38:23;;;;;;;3.03;2.00;;;21.40;99.90;;;;;;5078338;28;20482;-80
2022/05/06 12:40:52;;;;;;;4.10;1.90;;;21.80;99.90;;;;;;5076103;28;20044;-81
2022/05/06 12:43:26;;;;;;;2.25;1.67;;;22.40;99.90;;;;;;5074518;28;20035;-80
2022/05/06 12:45:59;;;;;;;2.75;1.90;;;22.60;99.90;;;;;;5091870;28;20486;-80
2022/05/06 12:54:51;;;;;;;3.85;2.42;;;22.30;99.90;;;;;;5103755;28;20042;-81
2022/05/06 12:57:17;;;;;;;4.22;2.50;;;22.10;99.90;;;;;;5100155;28;20047;-78
2022/05/06 12:59:44;;;;;;;4.10;3.17;;;22.40;99.90;;;;;;5091235;28;20048;-80
2022/05/06 13:02:09;;;;;;;4.22;2.67;;;22.20;99.90;;;;;;5095662;28;20035;-77
2022/05/06 13:04:36;;;;;;;3.70;2.70;;;21.60;99.90;;;;;;5095538;28;20043;-79
2022/05/06 13:07:02;;;;;;;3.95;2.67;;;21.30;99.90;;;;;;5094630;28;20051;-78
2022/05/06 13:09:29;;;;;;;3.60;2.20;;;21.10;99.90;;;;;;5074942;28;20136;-79
2022/05/06 13:12:00;;;;;;;6.80;2.53;;;21.30;99.90;;;;;;5094487;28;20134;-81
2022/05/06 13:14:26;;;;;;;7.63;2.92;;;21.70;99.90;;;;;;5098428;28;20052;-80
2022/05/06 13:16:52;;;;;;;4.97;2.70;;;22.00;99.90;;;;;;5097123;28;20478;-81
2022/05/06 13:19:18;;;;;;;4.75;2.72;;;22.70;99.90;;;;;;5095018;28;20387;-81
2022/05/06 13:21:44;;;;;;;4.18;2.40;;;23.20;99.90;;;;;;5076984;28;20043;-81
2022/05/06 13:24:09;;;;;;;3.95;2.30;;;23.20;99.60;;;;;;5077896;28;20627;-81
2022/05/06 13:26:36;;;;;;;6.38;2.90;;;23.00;99.90;;;;;;5080534;28;20040;-80
2022/05/06 13:29:03;;;;;;;5.63;3.25;;;22.50;99.90;;;;;;5102606;28;20390;-81
2022/05/06 13:31:29;;;;;;;7.43;3.55;;;22.40;99.90;;;;;;5074900;28;20048;-80
2022/05/06 13:33:55;;;;;;;7.43;3.63;;;22.60;99.90;;;;;;5090043;28;20367;-79
2022/05/06 13:36:20;;;;;;;6.60;3.67;;;22.10;99.90;;;;;;5092560;28;20134;-79